Time;durP1;ratioP1;P1;durP2;ratioP2;P2;SDS_P1;SDS_P2;PMS_P1;PMS_P2;Temp;Humidity;BMP_temperature;BMP_pressure;BME280_temperature;BME280_humidity;BME280_pressure;Samples;Min_cycle;Max_cycle;Signal;HPM_P1;HPM_P2
2022/03/31 00:02:16;;;;;;;28.13;21.33;;;7.90;99.90;;;;;;5025485;28;20680;-78
2022/03/31 00:04:43;;;;;;;28.17;21.37;;;7.90;99.90;;;;;;5026691;28;20229;-78
2022/03/31 00:07:09;;;;;;;29.03;22.13;;;7.90;99.90;;;;;;5027760;28;20663;-78
2022/03/31 00:09:36;;;;;;;25.97;21.77;;;7.90;99.90;;;;;;5026672;28;20645;-78
2022/03/31 00:12:05;;;;;;;29.90;21.43;;;7.90;99.90;;;;;;5027206;28;20229;-78
2022/03/31 00:14:32;;;;;;;29.77;22.13;;;7.80;99.90;;;;;;5025923;28;20199;-78
2022/03/31 00:16:59;;;;;;;25.30;20.33;;;7.80;99.90;;;;;;5026943;28;20214;-78
2022/03/31 00:19:26;;;;;;;30.23;21.63;;;7.80;99.90;;;;;;5025212;28;20272;-78
2022/03/31 00:21:53;;;;;;;28.93;21.67;;;7.90;99.90;;;;;;5027907;28;20207;-78
2022/03/31 00:24:19;;;;;;;32.00;23.30;;;7.90;99.90;;;;;;5026316;28;20211;-78
2022/03/31 00:26:46;;;;;;;26.93;20.27;;;7.90;99.90;;;;;;5028130;28;20614;-78
2022/03/31 00:29:14;;;;;;;24.33;19.97;;;7.80;99.90;;;;;;5025991;28;20223;-77
2022/03/31 00:31:41;;;;;;;28.97;20.70;;;7.80;99.90;;;;;;5027157;28;20277;-78
2022/03/31 00:34:08;;;;;;;25.17;18.87;;;7.80;99.90;;;;;;5027178;28;20192;-78
2022/03/31 00:36:35;;;;;;;30.40;21.63;;;7.80;99.90;;;;;;5024220;28;20195;-77
2022/03/31 00:41:46;;;;;;;32.77;22.57;;;7.70;99.90;;;;;;5017614;28;20203;-78
2022/03/31 00:44:14;;;;;;;32.20;21.83;;;7.70;99.90;;;;;;5023328;28;20204;-78
2022/03/31 00:46:47;;;;;;;29.43;21.10;;;7.70;99.90;;;;;;5026984;28;20260;-78
2022/03/31 00:49:14;;;;;;;33.13;23.90;;;7.70;99.90;;;;;;5024407;28;20215;-78
2022/03/31 00:51:41;;;;;;;30.27;22.13;;;7.70;99.90;;;;;;5025591;28;20346;-78
2022/03/31 00:54:08;;;;;;;29.83;21.70;;;7.70;99.90;;;;;;5024994;28;20204;-78
2022/03/31 00:56:36;;;;;;;30.77;22.40;;;7.70;99.90;;;;;;5027232;28;20278;-78
2022/03/31 00:59:06;;;;;;;37.33;26.40;;;7.70;99.90;;;;;;5027124;28;20287;-78
2022/03/31 01:01:36;;;;;;;33.20;22.83;;;7.70;99.90;;;;;;5024941;28;20297;-78
2022/03/31 01:04:03;;;;;;;33.23;21.97;;;7.70;99.90;;;;;;5021864;28;20246;-78
2022/03/31 01:06:30;;;;;;;32.97;24.33;;;7.80;99.90;;;;;;5026143;28;20208;-78
2022/03/31 01:08:57;;;;;;;30.40;22.80;;;7.80;99.90;;;;;;5027072;28;20227;-77
2022/03/31 01:11:24;;;;;;;32.80;23.00;;;7.80;99.90;;;;;;5023288;28;20207;-78
2022/03/31 01:13:51;;;;;;;30.53;22.60;;;7.80;99.90;;;;;;5021030;28;20194;-78
2022/03/31 01:16:18;;;;;;;27.70;21.43;;;7.70;99.90;;;;;;5019366;28;20252;-78
2022/03/31 01:18:46;;;;;;;33.47;22.03;;;7.80;99.90;;;;;;5021216;28;20281;-78
2022/03/31 01:21:13;;;;;;;39.57;25.43;;;7.80;99.90;;;;;;5023452;28;20237;-78
2022/03/31 01:23:41;;;;;;;30.50;21.33;;;7.80;99.90;;;;;;5022174;28;20227;-78
2022/03/31 01:26:09;;;;;;;31.07;21.97;;;7.80;99.90;;;;;;5023239;28;20197;-78
2022/03/31 01:28:37;;;;;;;30.70;21.97;;;7.80;99.90;;;;;;5018742;28;20223;-78
2022/03/31 01:31:04;;;;;;;30.30;21.33;;;7.70;99.90;;;;;;5024869;28;20199;-78
2022/03/31 01:33:31;;;;;;;32.37;22.27;;;7.70;99.90;;;;;;5020964;28;20233;-78
2022/03/31 01:35:58;;;;;;;31.70;22.60;;;7.70;99.90;;;;;;5022463;28;20259;-78
2022/03/31 01:38:25;;;;;;;28.13;21.30;;;7.70;99.90;;;;;;5024006;28;20222;-78
2022/03/31 01:40:53;;;;;;;30.87;21.80;;;7.70;99.90;;;;;;5020863;28;20207;-78
2022/03/31 01:43:21;;;;;;;28.40;19.73;;;7.70;99.90;;;;;;5024092;28;20249;-78
2022/03/31 01:45:49;;;;;;;35.37;23.17;;;7.70;99.90;;;;;;5033722;28;20206;-78
2022/03/31 01:48:16;;;;;;;36.83;23.30;;;7.70;99.90;;;;;;5034499;28;20200;-78
2022/03/31 01:50:44;;;;;;;29.23;20.60;;;7.70;99.90;;;;;;5032834;28;20202;-78
2022/03/31 01:53:10;;;;;;;36.83;24.07;;;7.70;99.90;;;;;;5026749;28;20678;-78
2022/03/31 01:55:40;;;;;;;36.00;22.83;;;7.70;99.90;;;;;;5013529;28;20192;-78
2022/03/31 01:58:08;;;;;;;31.53;22.43;;;7.70;99.90;;;;;;5025631;28;20227;-76
2022/03/31 02:00:35;;;;;;;38.10;24.53;;;7.60;99.90;;;;;;5021118;28;20634;-78
2022/03/31 02:03:03;;;;;;;37.23;24.70;;;7.70;99.90;;;;;;5022814;28;20255;-78
2022/03/31 02:05:29;;;;;;;32.50;23.67;;;7.60;99.90;;;;;;5024117;28;20194;-78
2022/03/31 02:07:57;;;;;;;42.33;25.93;;;7.50;99.90;;;;;;5021861;28;20696;-78
2022/03/31 02:10:26;;;;;;;33.13;24.30;;;7.50;99.90;;;;;;5023512;28;20258;-77
2022/03/31 02:12:53;;;;;;;36.47;22.87;;;7.60;99.90;;;;;;5021136;28;20199;-78
2022/03/31 02:15:22;;;;;;;38.27;24.23;;;7.50;99.90;;;;;;5018330;28;20206;-78
2022/03/31 02:17:49;;;;;;;36.90;25.70;;;7.50;99.90;;;;;;5022059;28;20640;-78
2022/03/31 02:20:16;;;;;;;38.73;26.20;;;7.50;99.90;;;;;;5022909;28;20203;-78
2022/03/31 02:22:43;;;;;;;34.27;25.27;;;7.50;99.90;;;;;;5022501;28;20211;-78
2022/03/31 02:25:11;;;;;;;36.43;26.20;;;7.50;99.90;;;;;;5023001;28;20199;-78
2022/03/31 02:27:39;;;;;;;39.83;26.97;;;7.50;99.90;;;;;;5017685;28;20210;-78
2022/03/31 02:30:08;;;;;;;36.47;26.83;;;7.60;99.90;;;;;;5025668;28;20235;-78
2022/03/31 02:32:37;;;;;;;36.83;25.83;;;7.60;99.90;;;;;;5018851;28;20207;-78
2022/03/31 02:35:05;;;;;;;36.30;26.10;;;7.60;99.90;;;;;;5021561;28;20196;-80
2022/03/31 02:37:32;;;;;;;35.53;25.40;;;7.60;99.90;;;;;;5023214;28;20213;-78
2022/03/31 02:39:59;;;;;;;34.97;24.53;;;7.60;99.90;;;;;;5024155;28;20202;-81
2022/03/31 02:42:26;;;;;;;35.13;23.53;;;7.60;99.90;;;;;;5017165;28;20208;-77
2022/03/31 02:44:53;;;;;;;41.40;25.13;;;7.60;99.90;;;;;;5013278;28;20210;-81
2022/03/31 02:47:19;;;;;;;34.87;22.40;;;7.60;99.90;;;;;;5020598;28;20208;-78
2022/03/31 02:49:48;;;;;;;30.50;20.83;;;7.60;99.90;;;;;;5020939;28;20215;-78
2022/03/31 02:52:15;;;;;;;35.13;23.13;;;7.60;99.90;;;;;;5019376;28;20219;-78
2022/03/31 02:57:26;;;;;;;31.07;21.27;;;7.50;99.90;;;;;;5020516;28;20211;-77
2022/03/31 02:59:53;;;;;;;28.03;22.70;;;7.50;99.90;;;;;;5015327;28;20768;-77
2022/03/31 03:02:19;;;;;;;29.97;22.20;;;7.50;99.90;;;;;;5024020;28;20196;-77
2022/03/31 03:04:48;;;;;;;26.80;20.83;;;7.40;99.90;;;;;;5022935;28;20747;-77
2022/03/31 03:07:15;;;;;;;31.20;21.40;;;7.40;99.90;;;;;;5018124;28;20200;-78
2022/03/31 03:09:42;;;;;;;26.53;20.63;;;7.30;99.90;;;;;;5018109;28;20269;-80
2022/03/31 03:12:10;;;;;;;27.47;20.13;;;7.40;99.90;;;;;;5023861;28;20195;-84
2022/03/31 03:14:38;;;;;;;28.80;22.00;;;7.40;99.90;;;;;;5019578;28;20196;-85
2022/03/31 03:17:05;;;;;;;25.47;20.43;;;7.30;99.90;;;;;;5025314;28;20672;-79
2022/03/31 03:19:32;;;;;;;25.47;18.97;;;7.30;99.90;;;;;;5019961;28;20660;-79
2022/03/31 03:22:00;;;;;;;26.00;19.63;;;7.30;99.90;;;;;;5027405;28;20200;-83
2022/03/31 03:24:27;;;;;;;25.73;20.40;;;7.30;99.90;;;;;;5025695;28;20688;-80
2022/03/31 03:26:54;;;;;;;25.80;19.70;;;7.30;99.90;;;;;;5021520;28;20479;-79
2022/03/31 03:29:21;;;;;;;24.30;20.37;;;7.30;99.90;;;;;;5021550;28;20231;-78
2022/03/31 03:31:48;;;;;;;29.63;19.33;;;7.20;99.90;;;;;;5029635;28;20199;-78
2022/03/31 03:34:15;;;;;;;26.87;20.50;;;7.20;99.90;;;;;;5024580;28;20196;-78
2022/03/31 03:36:41;;;;;;;25.97;20.67;;;7.20;99.90;;;;;;5029288;28;20202;-79
2022/03/31 03:39:11;;;;;;;28.43;21.23;;;7.10;99.90;;;;;;5027336;28;20220;-78
2022/03/31 03:41:38;;;;;;;25.07;20.10;;;7.20;99.90;;;;;;5032567;28;20219;-79
2022/03/31 03:44:05;;;;;;;26.77;21.67;;;7.10;99.90;;;;;;5024796;28;20256;-79
2022/03/31 03:46:32;;;;;;;23.50;17.03;;;7.10;99.90;;;;;;5023581;28;20196;-79
2022/03/31 03:48:59;;;;;;;27.67;19.87;;;7.10;99.90;;;;;;5030664;28;20711;-78
2022/03/31 03:51:26;;;;;;;26.73;21.40;;;7.10;99.90;;;;;;5029772;28;20207;-79
2022/03/31 03:53:53;;;;;;;26.53;19.90;;;7.10;99.90;;;;;;5032386;28;20214;-79
2022/03/31 03:56:21;;;;;;;25.80;18.63;;;7.10;99.90;;;;;;5031136;28;20195;-78
2022/03/31 03:58:48;;;;;;;27.37;19.23;;;7.10;99.90;;;;;;5025129;28;20228;-78
2022/03/31 04:01:15;;;;;;;26.80;18.10;;;7.10;99.90;;;;;;5026226;28;20206;-78
2022/03/31 04:03:42;;;;;;;24.23;16.67;;;7.10;99.90;;;;;;5022059;28;20198;-78
2022/03/31 04:06:09;;;;;;;27.73;19.50;;;7.10;99.90;;;;;;5020574;28;20208;-78
2022/03/31 04:08:35;;;;;;;28.47;18.63;;;7.00;99.90;;;;;;5026214;28;20265;-78
2022/03/31 04:11:02;;;;;;;24.70;18.47;;;7.00;99.90;;;;;;5025589;28;20233;-78
2022/03/31 04:13:30;;;;;;;27.10;18.83;;;7.00;99.90;;;;;;5028466;28;20279;-79
2022/03/31 04:15:57;;;;;;;25.17;18.17;;;7.00;99.90;;;;;;5028487;28;20223;-77
2022/03/31 04:18:24;;;;;;;30.43;19.13;;;6.90;99.90;;;;;;5028941;28;20229;-79
2022/03/31 04:20:51;;;;;;;29.73;21.23;;;6.90;99.90;;;;;;5025697;28;20202;-79
2022/03/31 04:23:17;;;;;;;34.23;23.83;;;6.80;99.90;;;;;;5024948;28;20203;-79
2022/03/31 04:25:44;;;;;;;29.40;22.60;;;6.80;99.90;;;;;;5027906;28;20188;-79
2022/03/31 04:28:11;;;;;;;32.07;24.20;;;6.80;99.90;;;;;;5026790;28;20216;-79
2022/03/31 04:30:39;;;;;;;29.17;22.53;;;6.80;99.90;;;;;;5026568;28;20202;-79
2022/03/31 04:33:06;;;;;;;25.80;21.43;;;6.80;99.90;;;;;;5027615;28;20228;-79
2022/03/31 04:35:33;;;;;;;28.63;21.57;;;6.90;99.90;;;;;;5027513;28;20194;-78
2022/03/31 04:38:00;;;;;;;28.63;21.30;;;6.90;99.90;;;;;;5028265;28;20227;-79
2022/03/31 04:40:27;;;;;;;28.17;20.87;;;6.90;99.90;;;;;;5025118;28;20232;-77
2022/03/31 04:42:54;;;;;;;29.30;20.33;;;6.90;99.90;;;;;;5025746;28;20653;-78
2022/03/31 04:45:21;;;;;;;27.57;20.57;;;6.90;99.90;;;;;;5028517;28;20198;-78
2022/03/31 04:47:49;;;;;;;24.83;18.77;;;6.90;99.90;;;;;;5025731;28;20662;-79
2022/03/31 04:50:16;;;;;;;26.93;19.37;;;6.90;99.90;;;;;;5026865;28;20208;-78
2022/03/31 04:52:43;;;;;;;29.57;23.03;;;6.80;99.90;;;;;;5024397;28;20222;-79
2022/03/31 04:55:11;;;;;;;28.47;21.53;;;6.70;99.90;;;;;;5026638;28;20257;-77
2022/03/31 04:57:38;;;;;;;28.50;21.47;;;6.70;99.90;;;;;;5011956;28;20221;-79
2022/03/31 05:00:07;;;;;;;29.03;23.20;;;6.70;99.90;;;;;;5029182;28;20218;-78
2022/03/31 05:02:34;;;;;;;32.83;23.73;;;6.70;99.90;;;;;;5028918;28;20637;-78
2022/03/31 05:05:02;;;;;;;29.07;23.40;;;6.70;99.90;;;;;;5025402;28;20202;-78
2022/03/31 05:07:29;;;;;;;27.83;21.20;;;6.70;99.90;;;;;;5028470;28;20705;-79
2022/03/31 05:09:56;;;;;;;25.77;20.43;;;6.80;99.90;;;;;;5018870;28;20199;-78
2022/03/31 05:12:23;;;;;;;29.17;22.10;;;6.80;99.90;;;;;;5028365;28;20203;-79
2022/03/31 05:14:49;;;;;;;31.00;22.70;;;6.80;99.90;;;;;;5024349;28;20244;-78
2022/03/31 05:17:16;;;;;;;25.60;21.57;;;6.80;99.90;;;;;;5020634;28;20206;-78
2022/03/31 05:19:43;;;;;;;25.27;19.97;;;6.90;99.90;;;;;;5025144;28;20746;-79
2022/03/31 05:22:11;;;;;;;28.20;21.63;;;6.80;99.90;;;;;;5023861;28;20203;-79
2022/03/31 05:24:39;;;;;;;28.27;21.30;;;6.80;99.90;;;;;;5018189;28;20195;-79
2022/03/31 05:27:05;;;;;;;27.47;21.40;;;6.80;99.90;;;;;;5025307;28;20197;-78
2022/03/31 05:29:34;;;;;;;26.30;20.83;;;6.80;99.90;;;;;;5020999;23;20235;-77
2022/03/31 05:32:01;;;;;;;27.57;21.00;;;6.80;99.90;;;;;;4980371;28;20197;-78
2022/03/31 05:34:28;;;;;;;28.43;21.57;;;6.80;99.90;;;;;;4985473;28;20688;-78
2022/03/31 05:36:55;;;;;;;28.93;21.53;;;6.80;99.90;;;;;;4981615;28;20255;-78
2022/03/31 05:39:23;;;;;;;30.47;22.10;;;6.80;99.90;;;;;;4971902;28;20302;-77
2022/03/31 05:41:50;;;;;;;26.37;20.57;;;6.80;99.90;;;;;;4960438;28;20213;-78
2022/03/31 05:44:17;;;;;;;24.97;20.87;;;6.70;99.90;;;;;;4957112;28;20226;-78
2022/03/31 05:46:44;;;;;;;23.80;19.27;;;6.80;99.90;;;;;;4966495;28;20609;-78
2022/03/31 05:49:11;;;;;;;25.40;20.60;;;6.70;99.90;;;;;;4962500;28;20703;-77
2022/03/31 05:51:38;;;;;;;25.07;21.30;;;6.80;99.90;;;;;;4964534;28;20302;-78
2022/03/31 05:54:05;;;;;;;27.33;21.53;;;6.70;99.90;;;;;;4961536;28;20263;-78
2022/03/31 05:56:34;;;;;;;26.70;20.70;;;6.80;99.90;;;;;;4964553;28;20708;-78
2022/03/31 05:59:01;;;;;;;26.30;20.37;;;6.70;99.90;;;;;;4964633;28;20216;-78
2022/03/31 06:01:27;;;;;;;23.63;19.77;;;6.70;99.90;;;;;;4958645;28;20272;-78
2022/03/31 06:03:55;;;;;;;25.83;21.23;;;6.80;99.90;;;;;;4959610;28;20208;-78
2022/03/31 06:06:23;;;;;;;28.40;20.43;;;6.80;99.90;;;;;;4961054;28;20223;-78
2022/03/31 06:08:50;;;;;;;31.23;21.53;;;6.80;99.90;;;;;;4962037;28;20255;-77
2022/03/31 06:11:17;;;;;;;30.77;24.20;;;6.80;99.90;;;;;;4961665;28;20253;-78
2022/03/31 06:13:46;;;;;;;27.57;22.87;;;6.80;99.90;;;;;;4963864;28;20200;-78
2022/03/31 06:16:12;;;;;;;24.93;20.93;;;6.70;99.90;;;;;;4965445;28;20198;-78
2022/03/31 06:18:39;;;;;;;26.23;21.03;;;6.80;99.90;;;;;;4965329;28;20762;-77
2022/03/31 06:21:06;;;;;;;28.37;22.80;;;6.80;99.90;;;;;;4959838;28;20366;-78
2022/03/31 06:23:33;;;;;;;28.13;22.40;;;6.80;99.90;;;;;;4963809;28;20200;-78
2022/03/31 06:26:00;;;;;;;32.20;23.80;;;6.70;99.90;;;;;;4961948;28;20850;-78
2022/03/31 06:28:28;;;;;;;28.43;21.50;;;6.70;99.90;;;;;;4962602;28;20290;-77
2022/03/31 06:30:57;;;;;;;31.23;22.90;;;6.70;99.90;;;;;;4959225;28;20194;-78
2022/03/31 06:33:24;;;;;;;30.83;23.93;;;6.70;99.90;;;;;;4957365;28;20215;-77
2022/03/31 06:35:50;;;;;;;31.17;21.67;;;6.70;99.90;;;;;;4961500;28;20198;-78
2022/03/31 06:38:17;;;;;;;27.30;22.53;;;6.70;99.90;;;;;;4964428;28;20225;-78
2022/03/31 06:41:06;;;;;;;26.03;20.63;;;6.80;99.90;;;;;;4962985;28;20214;-77
2022/03/31 06:43:31;;;;;;;27.83;21.07;;;6.70;99.90;;;;;;4963170;28;20574;-77
2022/03/31 06:46:00;;;;;;;26.93;20.07;;;6.80;99.90;;;;;;4960549;28;20740;-78
2022/03/31 06:48:27;;;;;;;29.70;21.07;;;6.80;99.90;;;;;;4964288;28;20226;-78
2022/03/31 06:50:54;;;;;;;27.53;20.60;;;6.70;99.90;;;;;;4959786;28;20267;-78
2022/03/31 06:53:21;;;;;;;31.77;22.83;;;6.70;99.90;;;;;;4957866;28;20211;-78
2022/03/31 06:55:48;;;;;;;26.67;20.60;;;6.70;99.90;;;;;;4959824;28;20203;-78
2022/03/31 06:58:15;;;;;;;28.57;21.63;;;6.70;99.90;;;;;;4961688;28;20303;-78
2022/03/31 07:00:42;;;;;;;30.40;23.20;;;6.80;99.90;;;;;;4961417;28;20283;-78
2022/03/31 07:03:10;;;;;;;28.77;20.97;;;6.70;99.90;;;;;;4960384;28;20274;-77
2022/03/31 07:05:38;;;;;;;29.57;21.63;;;6.70;99.90;;;;;;4957503;28;20255;-78
2022/03/31 07:08:05;;;;;;;28.77;20.80;;;6.70;99.90;;;;;;4961328;28;20227;-77
2022/03/31 07:10:32;;;;;;;26.53;20.37;;;6.70;99.90;;;;;;4958509;28;20200;-77
2022/03/31 07:13:00;;;;;;;27.37;20.90;;;6.70;99.90;;;;;;4960717;28;20724;-77
2022/03/31 07:15:27;;;;;;;25.37;19.30;;;6.80;99.90;;;;;;4961461;28;20293;-77
2022/03/31 07:17:54;;;;;;;22.13;17.40;;;6.80;99.90;;;;;;4958275;28;20204;-77
2022/03/31 07:20:23;;;;;;;24.63;16.83;;;6.80;99.90;;;;;;4955726;28;20216;-78
2022/03/31 07:22:50;;;;;;;26.00;19.17;;;6.90;99.90;;;;;;4963297;28;20223;-77
2022/03/31 07:25:18;;;;;;;28.90;20.60;;;6.80;99.90;;;;;;4960285;28;20200;-78
2022/03/31 07:27:45;;;;;;;26.17;19.03;;;6.80;99.90;;;;;;4963829;28;20664;-78
2022/03/31 07:30:13;;;;;;;24.40;19.30;;;6.80;99.90;;;;;;4964039;28;20200;-77
2022/03/31 07:32:48;;;;;;;30.23;20.33;;;6.80;99.90;;;;;;4964763;28;20228;-77
2022/03/31 07:35:14;;;;;;;25.80;18.80;;;6.80;99.90;;;;;;4964368;28;20202;-77
2022/03/31 07:37:43;;;;;;;28.03;19.43;;;6.90;99.90;;;;;;4963621;28;20752;-78
2022/03/31 07:40:11;;;;;;;23.37;18.80;;;7.00;99.90;;;;;;4966690;28;20645;-77
2022/03/31 07:42:38;;;;;;;26.60;21.03;;;7.10;99.90;;;;;;4957321;28;20744;-77
2022/03/31 07:45:07;;;;;;;26.30;20.73;;;7.10;99.90;;;;;;4963318;28;20217;-77
2022/03/31 07:47:34;;;;;;;25.70;19.30;;;7.10;99.90;;;;;;4967953;28;20196;-77
2022/03/31 07:50:00;;;;;;;26.60;19.67;;;7.10;99.90;;;;;;4963283;28;20224;-78
2022/03/31 07:52:27;;;;;;;26.30;21.03;;;7.10;99.90;;;;;;4965181;28;20639;-78
2022/03/31 07:54:55;;;;;;;26.20;19.90;;;7.10;99.90;;;;;;4962347;28;20270;-77
2022/03/31 07:57:22;;;;;;;26.53;19.53;;;7.20;99.90;;;;;;4960821;28;20260;-78
2022/03/31 07:59:49;;;;;;;26.67;18.87;;;7.00;99.90;;;;;;4961715;28;20229;-77
2022/03/31 08:02:16;;;;;;;26.00;18.77;;;7.00;99.90;;;;;;4963962;28;20200;-77
2022/03/31 08:04:43;;;;;;;27.37;19.33;;;7.00;99.90;;;;;;4965706;28;20201;-77
2022/03/31 08:07:09;;;;;;;30.13;21.10;;;6.90;99.90;;;;;;4963142;28;20232;-77
2022/03/31 08:09:36;;;;;;;27.20;19.63;;;6.90;99.90;;;;;;4964182;28;20732;-77
2022/03/31 08:12:06;;;;;;;26.40;19.57;;;7.00;99.90;;;;;;4965748;28;20200;-77
2022/03/31 08:14:33;;;;;;;24.03;19.10;;;7.10;99.90;;;;;;4960136;28;20193;-77
2022/03/31 08:17:00;;;;;;;30.33;20.13;;;7.20;99.90;;;;;;4962592;28;20737;-78
2022/03/31 08:19:30;;;;;;;26.13;18.93;;;7.40;99.90;;;;;;4963529;28;20307;-77
2022/03/31 08:21:57;;;;;;;22.50;17.00;;;7.40;99.90;;;;;;4964087;28;20544;-77
2022/03/31 08:24:24;;;;;;;23.63;17.13;;;7.60;99.90;;;;;;4964415;28;20204;-78
2022/03/31 08:26:51;;;;;;;22.60;18.10;;;7.80;99.90;;;;;;4964004;28;20673;-78
2022/03/31 08:29:19;;;;;;;26.40;17.63;;;7.90;99.90;;;;;;4966207;28;20255;-78
2022/03/31 08:31:46;;;;;;;25.70;17.43;;;7.90;99.90;;;;;;4963807;28;20245;-77
2022/03/31 08:34:13;;;;;;;27.03;17.87;;;7.80;99.90;;;;;;4961795;28;20235;-78
2022/03/31 08:36:40;;;;;;;23.97;16.87;;;7.90;99.90;;;;;;4963407;28;20269;-77
2022/03/31 08:39:07;;;;;;;20.40;16.27;;;7.70;99.90;;;;;;4963302;28;20218;-77
2022/03/31 08:41:34;;;;;;;26.43;18.50;;;7.80;99.90;;;;;;4964773;28;20707;-77
2022/03/31 08:44:01;;;;;;;19.77;16.43;;;7.80;99.90;;;;;;4962271;28;20293;-78
2022/03/31 08:46:32;;;;;;;20.67;16.80;;;7.80;99.90;;;;;;4959508;28;20258;-78
2022/03/31 08:48:59;;;;;;;23.77;19.63;;;7.90;99.90;;;;;;4965549;28;20214;-77
2022/03/31 08:51:28;;;;;;;26.13;20.83;;;8.00;99.90;;;;;;4975335;28;20244;-78
2022/03/31 08:53:55;;;;;;;25.13;20.83;;;8.00;99.90;;;;;;4973398;28;20662;-78
2022/03/31 08:56:22;;;;;;;26.93;21.53;;;8.00;99.90;;;;;;4962928;28;20202;-78
2022/03/31 08:58:49;;;;;;;29.53;22.47;;;8.00;99.90;;;;;;4965210;28;20292;-78
2022/03/31 09:01:16;;;;;;;26.03;19.27;;;8.00;99.90;;;;;;4965551;28;20304;-78
2022/03/31 09:03:47;;;;;;;27.13;19.63;;;8.10;99.90;;;;;;4965096;28;20623;-77
2022/03/31 09:06:21;;;;;;;25.40;20.20;;;8.20;99.90;;;;;;4960227;28;20801;-77
2022/03/31 09:08:55;;;;;;;27.60;20.83;;;8.20;99.90;;;;;;4962877;28;20240;-78
2022/03/31 09:11:27;;;;;;;27.33;20.20;;;8.10;99.90;;;;;;4963955;28;20198;-77
2022/03/31 09:13:58;;;;;;;24.70;18.83;;;8.20;99.90;;;;;;4957554;28;20686;-78
2022/03/31 09:16:31;;;;;;;23.17;18.23;;;8.20;99.90;;;;;;4963918;28;20815;-78
2022/03/31 09:19:03;;;;;;;22.97;19.50;;;8.20;99.90;;;;;;4961068;28;20633;-78
2022/03/31 09:21:31;;;;;;;23.70;17.00;;;8.30;99.90;;;;;;4957637;28;20222;-78
2022/03/31 09:24:00;;;;;;;26.97;19.23;;;8.40;99.90;;;;;;4966699;28;20281;-77
2022/03/31 09:26:31;;;;;;;25.30;19.03;;;8.50;99.90;;;;;;4962743;28;20234;-78
2022/03/31 09:29:12;;;;;;;26.23;21.10;;;8.50;99.90;;;;;;4963815;28;20230;-78
2022/03/31 09:31:40;;;;;;;27.23;20.20;;;8.60;99.90;;;;;;4955360;28;20201;-78
2022/03/31 09:34:09;;;;;;;23.43;18.23;;;8.90;99.90;;;;;;4963911;28;20194;-78
2022/03/31 09:36:37;;;;;;;23.60;17.77;;;9.30;99.90;;;;;;4962970;28;20575;-77
2022/03/31 09:39:07;;;;;;;24.83;18.10;;;9.50;99.90;;;;;;4961834;28;20703;-78
2022/03/31 09:41:35;;;;;;;19.93;16.43;;;9.80;99.90;;;;;;4962511;28;20734;-78
2022/03/31 09:44:04;;;;;;;22.90;15.57;;;9.90;99.90;;;;;;4961724;28;20193;-78
2022/03/31 09:46:33;;;;;;;20.90;15.27;;;10.20;99.90;;;;;;4961993;28;20211;-78
2022/03/31 09:49:10;;;;;;;21.70;16.67;;;10.30;99.90;;;;;;4963528;28;20703;-78
2022/03/31 09:51:38;;;;;;;21.50;16.90;;;10.50;99.90;;;;;;4951883;28;20208;-78
2022/03/31 09:54:06;;;;;;;19.87;15.50;;;10.60;99.90;;;;;;4961240;28;20198;-78
2022/03/31 09:56:35;;;;;;;21.27;15.70;;;10.50;99.90;;;;;;4964433;28;20560;-78
2022/03/31 09:59:04;;;;;;;22.90;16.43;;;10.40;99.90;;;;;;4961427;28;20750;-78
2022/03/31 10:01:33;;;;;;;22.10;16.20;;;10.40;99.90;;;;;;4962138;28;20322;-78
2022/03/31 10:04:02;;;;;;;20.87;16.07;;;10.40;99.90;;;;;;4961249;28;20203;-78
2022/03/31 10:06:29;;;;;;;22.17;16.77;;;10.20;99.90;;;;;;4958241;28;20207;-78
2022/03/31 10:08:58;;;;;;;18.67;14.70;;;10.10;99.90;;;;;;4966640;28;20250;-78
2022/03/31 10:11:28;;;;;;;21.53;15.73;;;10.20;99.90;;;;;;4963184;28;20199;-78
2022/03/31 10:14:06;;;;;;;24.67;16.43;;;10.00;99.90;;;;;;4964948;28;20295;-79
2022/03/31 10:16:38;;;;;;;21.53;15.77;;;10.20;99.90;;;;;;4965235;28;20711;-77
2022/03/31 10:19:05;;;;;;;19.40;14.97;;;10.30;99.90;;;;;;4961526;28;20766;-78
2022/03/31 10:21:32;;;;;;;19.10;15.47;;;10.30;99.90;;;;;;4963831;28;20223;-79
2022/03/31 10:26:45;;;;;;;20.80;16.30;;;10.40;99.90;;;;;;4950897;28;20212;-78
2022/03/31 10:29:13;;;;;;;22.40;15.50;;;10.50;99.90;;;;;;4955950;28;20270;-78
2022/03/31 10:31:42;;;;;;;17.93;14.40;;;10.40;99.90;;;;;;4962552;28;20478;-78
2022/03/31 10:34:11;;;;;;;21.27;16.07;;;10.60;99.90;;;;;;4960781;28;20563;-78
2022/03/31 10:36:40;;;;;;;18.93;14.80;;;10.60;99.90;;;;;;4959966;28;20224;-78
2022/03/31 10:39:19;;;;;;;20.20;14.63;;;10.60;99.90;;;;;;4961700;28;20215;-78
2022/03/31 10:41:47;;;;;;;18.73;14.47;;;10.60;99.90;;;;;;4953162;28;20573;-78
2022/03/31 10:44:19;;;;;;;19.90;15.07;;;10.50;99.90;;;;;;4956843;28;20213;-79
2022/03/31 10:46:48;;;;;;;20.90;15.80;;;10.50;99.90;;;;;;4960932;28;20283;-78
2022/03/31 10:49:19;;;;;;;20.07;15.17;;;10.50;99.90;;;;;;4955411;28;20652;-78
2022/03/31 10:51:46;;;;;;;22.53;15.67;;;10.60;99.90;;;;;;4962355;28;20306;-78
2022/03/31 10:54:27;;;;;;;19.27;15.40;;;10.70;99.90;;;;;;4960678;28;20206;-78
2022/03/31 10:57:06;;;;;;;17.93;14.20;;;10.90;99.90;;;;;;4962095;28;20210;-78
2022/03/31 10:59:34;;;;;;;19.83;15.00;;;11.20;99.90;;;;;;4964038;28;20226;-78
2022/03/31 11:02:08;;;;;;;20.27;15.30;;;11.30;99.90;;;;;;4962467;28;20664;-78
2022/03/31 11:04:44;;;;;;;19.70;15.60;;;11.10;99.90;;;;;;4962617;28;20739;-78
2022/03/31 11:07:15;;;;;;;22.70;16.30;;;11.00;99.90;;;;;;4961888;28;20196;-78
2022/03/31 11:09:44;;;;;;;20.60;16.10;;;11.00;99.90;;;;;;4964086;28;20717;-78
2022/03/31 11:12:26;;;;;;;20.67;15.40;;;10.80;99.90;;;;;;4965182;28;20641;-78
2022/03/31 11:14:59;;;;;;;18.77;14.73;;;10.80;99.90;;;;;;4960022;28;20635;-78
2022/03/31 11:17:27;;;;;;;19.83;15.70;;;11.10;99.90;;;;;;4967554;28;20251;-78
2022/03/31 11:19:55;;;;;;;21.07;15.43;;;11.30;99.90;;;;;;4965321;28;20686;-78
2022/03/31 11:22:23;;;;;;;22.53;16.87;;;11.50;99.90;;;;;;4967066;28;20606;-78
2022/03/31 11:24:52;;;;;;;19.97;14.50;;;11.70;99.90;;;;;;4964812;28;20721;-79
2022/03/31 11:27:31;;;;;;;17.73;14.80;;;11.70;99.90;;;;;;4961631;28;20237;-79
2022/03/31 11:29:58;;;;;;;20.13;15.37;;;11.70;99.90;;;;;;4964071;28;20234;-80
2022/03/31 11:32:30;;;;;;;20.33;16.87;;;11.80;99.90;;;;;;4965488;28;20699;-80
2022/03/31 11:34:58;;;;;;;19.47;15.03;;;11.80;99.90;;;;;;4964030;28;20258;-80
2022/03/31 11:37:25;;;;;;;20.33;15.87;;;12.00;99.90;;;;;;4964554;28;20201;-80
2022/03/31 11:39:53;;;;;;;20.33;16.63;;;12.40;99.90;;;;;;4963631;28;20710;-80
2022/03/31 11:42:20;;;;;;;22.03;16.63;;;12.50;99.90;;;;;;4967369;28;20236;-80
2022/03/31 11:44:47;;;;;;;20.33;15.73;;;12.40;99.90;;;;;;4965524;28;20226;-80
2022/03/31 11:47:20;;;;;;;21.80;17.00;;;12.50;99.90;;;;;;4963432;28;20207;-80
2022/03/31 11:49:58;;;;;;;22.47;15.93;;;12.40;99.90;;;;;;4965310;28;20220;-79
2022/03/31 11:52:30;;;;;;;24.70;17.40;;;12.30;99.90;;;;;;4965039;28;20202;-80
2022/03/31 11:55:00;;;;;;;20.80;16.77;;;12.60;99.90;;;;;;4963990;28;20590;-80
2022/03/31 11:57:28;;;;;;;23.97;17.73;;;12.60;99.90;;;;;;4964531;28;20207;-80
2022/03/31 11:59:56;;;;;;;25.63;18.63;;;12.50;99.90;;;;;;4964075;28;20224;-80
2022/03/31 12:02:23;;;;;;;21.67;17.30;;;12.50;99.90;;;;;;4964412;28;20225;-80
2022/03/31 12:04:50;;;;;;;21.97;17.60;;;12.60;99.90;;;;;;4965186;28;20252;-80
2022/03/31 12:07:20;;;;;;;23.27;17.30;;;12.70;99.90;;;;;;4963132;28;20620;-80
2022/03/31 12:09:48;;;;;;;23.33;16.10;;;12.80;99.90;;;;;;4964981;28;20868;-80
2022/03/31 12:12:17;;;;;;;19.90;14.87;;;13.00;99.90;;;;;;4963967;28;20285;-80
2022/03/31 12:14:55;;;;;;;21.33;16.70;;;13.10;99.90;;;;;;4961032;28;20642;-80
2022/03/31 12:17:22;;;;;;;23.27;16.70;;;12.80;99.90;;;;;;4961572;28;20198;-81
2022/03/31 12:19:49;;;;;;;23.47;15.90;;;12.70;99.90;;;;;;4962865;28;20285;-80
2022/03/31 12:22:16;;;;;;;21.33;16.03;;;12.70;99.90;;;;;;4963066;28;20233;-80
2022/03/31 12:24:48;;;;;;;21.40;15.93;;;12.60;99.90;;;;;;4963028;28;20221;-80
2022/03/31 12:27:17;;;;;;;21.47;15.20;;;12.60;99.90;;;;;;4961699;28;20657;-80
2022/03/31 12:29:45;;;;;;;24.80;17.80;;;12.70;99.90;;;;;;4965499;28;20609;-80
2022/03/31 12:32:14;;;;;;;22.83;16.80;;;12.60;99.90;;;;;;4967176;28;20261;-80
2022/03/31 12:34:52;;;;;;;19.67;14.40;;;12.70;99.90;;;;;;4961777;28;20269;-80
2022/03/31 12:37:27;;;;;;;20.77;15.70;;;12.60;99.90;;;;;;4961451;28;20211;-80
2022/03/31 12:39:54;;;;;;;22.13;16.70;;;12.50;99.90;;;;;;4963200;28;20245;-80
2022/03/31 12:42:22;;;;;;;19.20;15.20;;;12.40;99.90;;;;;;4962629;28;20227;-79
2022/03/31 12:44:49;;;;;;;21.70;15.97;;;12.60;99.90;;;;;;4963572;28;20570;-80
2022/03/31 12:47:21;;;;;;;25.53;16.10;;;12.60;99.90;;;;;;4964260;28;20249;-79
2022/03/31 12:49:47;;;;;;;23.87;16.27;;;12.60;99.90;;;;;;4968106;28;20210;-80